createdAt,value
2018-02-07T00:01:07.545Z,15.13
2018-02-07T00:03:39.221Z,14.20
2018-02-07T00:06:10.642Z,16.03
2018-02-07T00:08:41.499Z,14.90
2018-02-07T00:11:13.238Z,15.87
2018-02-07T00:13:44.794Z,14.87
2018-02-07T00:16:15.667Z,16.00
2018-02-07T00:18:46.468Z,14.90
2018-02-07T00:21:17.441Z,16.43
2018-02-07T00:23:48.350Z,14.73
2018-02-07T00:26:19.382Z,15.03
2018-02-07T00:28:50.173Z,15.00
2018-02-07T00:31:21.055Z,16.10
2018-02-07T00:33:51.967Z,14.47
2018-02-07T00:36:23.764Z,15.43
2018-02-07T00:38:54.630Z,15.30
2018-02-07T00:41:25.530Z,15.13
2018-02-07T00:43:56.347Z,14.60
2018-02-07T00:46:27.365Z,13.10
2018-02-07T00:48:58.239Z,13.93
2018-02-07T00:51:29.129Z,14.40
2018-02-07T00:54:00.141Z,14.10
2018-02-07T00:56:32.528Z,14.17
2018-02-07T00:59:03.285Z,15.10
2018-02-07T01:01:35.065Z,15.07
2018-02-07T01:04:08.341Z,11.73
2018-02-07T01:06:39.189Z,13.30
2018-02-07T01:09:10.098Z,13.97
2018-02-07T01:11:42.038Z,12.50
2018-02-07T01:14:14.613Z,12.80
2018-02-07T01:16:46.059Z,13.70
2018-02-07T01:19:17.834Z,13.83
2018-02-07T01:21:49.218Z,14.10
2018-02-07T01:24:20.061Z,13.10
2018-02-07T01:26:51.479Z,14.73
2018-02-07T01:29:22.298Z,14.20
2018-02-07T01:31:54.873Z,13.30
2018-02-07T01:34:26.934Z,15.23
2018-02-07T01:36:58.801Z,12.93
2018-02-07T01:39:30.487Z,14.40
2018-02-07T01:42:02.109Z,14.13
2018-02-07T01:44:33.856Z,13.33
2018-02-07T01:47:05.494Z,14.03
2018-02-07T01:49:36.073Z,13.20
2018-02-07T01:52:06.706Z,12.80
2018-02-07T01:54:37.390Z,13.63
2018-02-07T01:57:08.246Z,14.00
2018-02-07T01:59:40.278Z,15.47
2018-02-07T02:02:10.950Z,14.43
2018-02-07T02:04:42.609Z,13.57
2018-02-07T02:07:14.561Z,13.50
2018-02-07T02:09:46.237Z,15.03
2018-02-07T02:12:17.009Z,14.63
2018-02-07T02:14:47.724Z,13.97
2018-02-07T02:17:18.450Z,14.40
2018-02-07T02:19:49.030Z,15.60
2018-02-07T02:22:20.535Z,15.93
2018-02-07T02:24:51.430Z,14.90
2018-02-07T02:27:23.111Z,15.60
2018-02-07T02:29:55.546Z,14.27
2018-02-07T02:32:26.254Z,14.90
2018-02-07T02:34:57.141Z,15.83
2018-02-07T02:37:28.829Z,14.60
2018-02-07T02:39:59.834Z,14.93
2018-02-07T02:42:31.387Z,14.40
2018-02-07T02:45:04.241Z,14.53
2018-02-07T02:47:35.154Z,15.20
2018-02-07T02:50:07.002Z,15.17
2018-02-07T02:52:38.270Z,15.03
2018-02-07T02:55:09.798Z,14.63
2018-02-07T02:57:40.707Z,14.33
2018-02-07T03:00:12.365Z,13.40
2018-02-07T03:02:43.929Z,15.47
2018-02-07T03:05:14.592Z,16.60
2018-02-07T03:07:45.558Z,14.43
2018-02-07T03:10:16.963Z,14.63
2018-02-07T03:12:48.726Z,15.30
2018-02-07T03:15:19.517Z,14.20
2018-02-07T03:17:51.945Z,14.97
2018-02-07T03:20:23.123Z,14.37
2018-02-07T03:22:54.421Z,15.70
2018-02-07T03:25:25.216Z,15.13
2018-02-07T03:27:56.026Z,17.47
2018-02-07T03:30:26.882Z,15.90
2018-02-07T03:32:59.271Z,16.20
2018-02-07T03:35:30.139Z,15.20
2018-02-07T03:38:01.037Z,14.80
2018-02-07T03:40:32.581Z,15.40
2018-02-07T03:43:08.893Z,15.20
2018-02-07T03:45:40.229Z,14.20
2018-02-07T03:48:14.467Z,13.40
2018-02-07T03:50:46.268Z,13.90
2018-02-07T03:53:17.098Z,12.93
2018-02-07T03:55:48.127Z,14.13
2018-02-07T03:58:19.630Z,13.57
2018-02-07T04:00:51.801Z,15.90
2018-02-07T04:03:22.562Z,14.20
2018-02-07T04:05:53.367Z,14.43
2018-02-07T04:08:25.042Z,13.50
2018-02-07T04:10:56.585Z,14.57
2018-02-07T04:13:27.550Z,13.23
2018-02-07T04:15:58.297Z,12.80
2018-02-07T04:18:29.386Z,14.20
2018-02-07T04:21:00.815Z,13.30
2018-02-07T04:23:33.233Z,14.27
2018-02-07T04:26:03.789Z,13.80
2018-02-07T04:28:34.718Z,13.00
2018-02-07T04:31:05.644Z,13.40
2018-02-07T04:33:36.529Z,13.10
2018-02-07T04:36:07.418Z,12.73
2018-02-07T04:38:38.030Z,13.27
2018-02-07T04:41:09.666Z,14.10
2018-02-07T04:43:41.342Z,12.80
2018-02-07T04:46:13.270Z,12.70
2018-02-07T04:48:44.257Z,13.40
2018-02-07T04:51:15.102Z,12.90
2018-02-07T04:53:47.729Z,13.23
2018-02-07T04:56:18.673Z,13.63
2018-02-07T04:58:49.497Z,12.63
2018-02-07T05:01:20.241Z,13.80
2018-02-07T05:03:50.966Z,12.90
2018-02-07T05:06:22.532Z,13.10
2018-02-07T05:08:53.339Z,12.60
2018-02-07T05:11:24.009Z,12.70
2018-02-07T05:13:55.555Z,13.80
2018-02-07T05:16:27.150Z,14.13
2018-02-07T05:18:57.958Z,12.80
2018-02-07T05:21:29.475Z,13.30
2018-02-07T05:24:00.248Z,12.80
2018-02-07T05:26:31.934Z,14.17
2018-02-07T05:29:02.761Z,13.73
2018-02-07T05:31:34.573Z,13.87
2018-02-07T05:34:10.628Z,12.87
2018-02-07T05:36:41.370Z,14.73
2018-02-07T05:39:12.654Z,14.40
2018-02-07T05:41:43.438Z,12.13
2018-02-07T05:44:14.907Z,13.30
2018-02-07T05:46:45.857Z,14.70
2018-02-07T05:49:18.103Z,13.13
2018-02-07T05:51:48.662Z,14.33
2018-02-07T05:54:20.270Z,13.63
2018-02-07T05:56:50.971Z,13.33
2018-02-07T05:59:21.877Z,12.60
2018-02-07T06:01:53.836Z,13.97
2018-02-07T06:04:25.877Z,13.60
2018-02-07T06:06:56.600Z,12.97
2018-02-07T06:09:27.274Z,12.80
2018-02-07T06:11:59.546Z,13.03
2018-02-07T06:14:32.814Z,13.63
2018-02-07T06:17:03.747Z,12.17
2018-02-07T06:19:34.489Z,11.87
2018-02-07T06:22:05.306Z,12.57
2018-02-07T06:24:35.967Z,12.30
2018-02-07T06:27:07.628Z,11.97
2018-02-07T06:29:39.412Z,12.63
2018-02-07T06:32:10.274Z,11.73
2018-02-07T06:34:41.165Z,11.47
2018-02-07T06:37:13.330Z,12.30
2018-02-07T06:39:44.581Z,10.63
2018-02-07T06:42:15.926Z,11.93
2018-02-07T06:44:47.435Z,12.00
2018-02-07T06:47:18.177Z,11.40
2018-02-07T06:49:49.007Z,13.17
2018-02-07T06:52:19.966Z,12.20
2018-02-07T06:54:50.911Z,11.10
2018-02-07T06:57:21.739Z,10.60
2018-02-07T06:59:52.441Z,12.20
2018-02-07T07:02:23.406Z,12.77
2018-02-07T07:04:54.232Z,11.17
2018-02-07T07:07:24.762Z,11.90
2018-02-07T07:09:55.630Z,11.17
2018-02-07T07:12:27.372Z,11.30
2018-02-07T07:14:58.305Z,11.40
2018-02-07T07:17:29.334Z,10.90
2018-02-07T07:20:00.172Z,11.17
2018-02-07T07:22:31.073Z,11.50
2018-02-07T07:25:01.666Z,11.23
2018-02-07T07:27:32.499Z,11.20
2018-02-07T07:30:04.364Z,9.80
2018-02-07T07:32:35.963Z,10.00
2018-02-07T07:35:06.935Z,11.67
2018-02-07T07:37:37.746Z,9.90
2018-02-07T07:40:08.603Z,11.00
2018-02-07T07:42:39.416Z,11.73
2018-02-07T07:45:10.307Z,11.70
2018-02-07T07:47:41.927Z,12.20
2018-02-07T07:50:12.879Z,11.63
2018-02-07T07:52:43.379Z,11.83
2018-02-07T07:55:14.339Z,11.83
2018-02-07T07:57:45.192Z,11.43
2018-02-07T08:00:16.018Z,11.60
2018-02-07T08:02:47.423Z,12.40
2018-02-07T08:05:18.622Z,11.27
2018-02-07T08:07:50.495Z,12.10
2018-02-07T08:10:22.195Z,12.37
2018-02-07T08:12:53.773Z,13.20
2018-02-07T08:15:24.459Z,13.43
2018-02-07T08:17:55.994Z,13.00
2018-02-07T08:20:27.446Z,12.60
2018-02-07T08:22:59.381Z,12.20
2018-02-07T08:25:31.127Z,13.00
2018-02-07T08:28:01.623Z,12.20
2018-02-07T08:30:32.114Z,11.83
2018-02-07T08:33:03.635Z,12.70
2018-02-07T08:35:34.097Z,12.40
2018-02-07T08:38:05.039Z,11.87
2018-02-07T08:40:36.680Z,11.73
2018-02-07T08:43:07.562Z,11.87
2018-02-07T08:45:39.576Z,11.60
2018-02-07T08:48:10.691Z,11.50
2018-02-07T08:50:41.462Z,12.10
2018-02-07T08:53:13.127Z,11.53
2018-02-07T08:55:44.750Z,11.97
2018-02-07T08:58:15.842Z,11.47
2018-02-07T09:00:47.631Z,12.23
2018-02-07T09:03:18.554Z,10.73
2018-02-07T09:05:49.859Z,11.37
2018-02-07T09:08:21.507Z,12.10
2018-02-07T09:10:52.618Z,11.63
2018-02-07T09:13:23.586Z,12.63
2018-02-07T09:15:54.233Z,12.70
2018-02-07T09:18:26.646Z,13.23
2018-02-07T09:20:57.533Z,11.13
2018-02-07T09:23:28.321Z,12.00
2018-02-07T09:25:59.303Z,12.50
2018-02-07T09:28:30.187Z,11.77
2018-02-07T09:31:01.285Z,11.43
2018-02-07T09:33:31.986Z,11.67
2018-02-07T09:36:03.463Z,11.67
2018-02-07T09:38:34.454Z,12.63
2018-02-07T09:41:05.148Z,10.97
2018-02-07T09:43:36.911Z,11.60
2018-02-07T09:46:08.666Z,11.10
2018-02-07T09:48:40.246Z,11.93
2018-02-07T09:51:11.160Z,11.37
2018-02-07T09:53:42.918Z,11.60
2018-02-07T09:56:14.537Z,11.67
2018-02-07T09:58:46.709Z,11.53
2018-02-07T10:01:17.565Z,11.07
2018-02-07T10:03:48.310Z,11.40
2018-02-07T10:06:20.147Z,11.27
2018-02-07T10:08:51.006Z,11.67
2018-02-07T10:11:22.498Z,11.57
2018-02-07T10:13:53.403Z,11.40
2018-02-07T10:16:24.962Z,12.20
2018-02-07T10:18:57.293Z,12.50
2018-02-07T10:21:28.273Z,12.20
2018-02-07T10:23:59.609Z,11.87
2018-02-07T10:26:31.138Z,11.40
2018-02-07T10:29:01.876Z,11.80
2018-02-07T10:31:32.806Z,12.67
2018-02-07T10:34:03.623Z,12.23
2018-02-07T10:36:34.490Z,11.40
2018-02-07T10:39:05.381Z,12.30
2018-02-07T10:41:36.247Z,13.17
2018-02-07T10:44:07.017Z,12.00
2018-02-07T10:46:38.635Z,12.40
2018-02-07T10:49:09.490Z,12.03
2018-02-07T10:51:40.329Z,11.57
2018-02-07T10:54:11.166Z,12.30
2018-02-07T10:56:41.682Z,11.63
2018-02-07T10:59:12.492Z,12.97
2018-02-07T11:01:43.204Z,13.50
2018-02-07T11:04:14.211Z,13.57
2018-02-07T11:06:44.954Z,16.97
2018-02-07T11:09:16.627Z,14.60
2018-02-07T11:11:47.521Z,14.33
2018-02-07T11:14:18.290Z,13.80
2018-02-07T11:16:49.827Z,12.63
2018-02-07T11:19:21.381Z,14.27
2018-02-07T11:21:52.835Z,12.53
2018-02-07T11:24:24.593Z,13.70
2018-02-07T11:26:56.163Z,13.43
2018-02-07T11:29:27.894Z,12.93
2018-02-07T11:31:58.618Z,13.73
2018-02-07T11:34:29.089Z,12.33
2018-02-07T11:36:59.574Z,12.80
2018-02-07T11:39:30.058Z,13.07
2018-02-07T11:42:00.957Z,14.30
2018-02-07T11:44:32.694Z,14.10
2018-02-07T11:47:04.529Z,15.43
2018-02-07T11:49:35.250Z,14.20
2018-02-07T11:52:06.151Z,12.83
2018-02-07T11:54:37.781Z,12.87
2018-02-07T11:57:08.666Z,13.30
2018-02-07T11:59:39.701Z,11.90
2018-02-07T12:02:10.599Z,12.37
2018-02-07T12:04:41.542Z,11.10
2018-02-07T12:07:13.421Z,11.43
2018-02-07T12:09:45.200Z,10.53
2018-02-07T12:12:16.671Z,11.40
2018-02-07T12:14:47.409Z,12.10
2018-02-07T12:17:19.326Z,12.67
2018-02-07T12:19:52.538Z,14.03
2018-02-07T12:22:23.430Z,11.03
2018-02-07T12:24:54.215Z,12.73
2018-02-07T12:27:25.464Z,12.33
2018-02-07T12:29:56.788Z,11.90
2018-02-07T12:32:28.525Z,11.40
2018-02-07T12:35:00.381Z,12.63
2018-02-07T12:37:31.355Z,10.53
2018-02-07T12:40:02.174Z,11.07
2018-02-07T12:42:33.866Z,11.80
2018-02-07T12:45:05.175Z,10.77
2018-02-07T12:47:36.899Z,11.67
2018-02-07T12:50:07.786Z,11.90
2018-02-07T12:52:38.771Z,11.67
2018-02-07T12:55:09.774Z,11.60
2018-02-07T12:57:41.606Z,11.17
2018-02-07T13:00:13.289Z,11.60
2018-02-07T13:02:44.823Z,12.30
2018-02-07T13:05:16.586Z,10.80
2018-02-07T13:07:48.146Z,12.33
2018-02-07T13:10:19.085Z,11.20
2018-02-07T13:12:50.182Z,11.40
2018-02-07T13:15:21.603Z,11.67
2018-02-07T13:17:52.575Z,11.30
2018-02-07T13:20:23.546Z,11.20
2018-02-07T13:22:55.474Z,10.80
2018-02-07T13:25:27.237Z,10.33
2018-02-07T13:27:58.940Z,11.97
2018-02-07T13:30:30.321Z,11.90
2018-02-07T13:33:01.174Z,11.30
2018-02-07T13:35:32.409Z,11.63
2018-02-07T13:38:03.788Z,12.30
2018-02-07T13:40:34.805Z,11.20
2018-02-07T13:43:05.930Z,12.60
2018-02-07T13:45:36.787Z,10.93
2018-02-07T13:48:08.131Z,10.73
2018-02-07T13:50:40.054Z,11.17
2018-02-07T13:53:12.020Z,12.17
2018-02-07T13:55:44.886Z,11.23
2018-02-07T13:58:16.320Z,12.00
2018-02-07T14:00:54.971Z,12.63
2018-02-07T14:03:26.122Z,12.57
2018-02-07T14:05:57.466Z,12.37
2018-02-07T14:08:28.619Z,12.40
2018-02-07T14:10:59.922Z,12.90
2018-02-07T14:13:32.864Z,12.80
2018-02-07T14:16:04.277Z,13.97
2018-02-07T14:18:36.854Z,12.90
2018-02-07T14:21:08.339Z,14.80
2018-02-07T14:23:39.502Z,13.90
2018-02-07T14:26:10.738Z,14.57
2018-02-07T14:28:42.058Z,15.23
2018-02-07T14:31:13.518Z,15.87
2018-02-07T14:33:44.878Z,17.70
2018-02-07T14:36:16.186Z,17.03
2018-02-07T14:38:47.353Z,16.90
2018-02-07T14:41:18.577Z,16.47
2018-02-07T14:43:50.010Z,17.03
2018-02-07T14:46:21.955Z,16.20
2018-02-07T14:48:53.056Z,16.40
2018-02-07T14:51:24.185Z,16.67
2018-02-07T14:53:56.027Z,17.93
2018-02-07T14:56:27.994Z,16.77
2018-02-07T14:58:59.915Z,17.07
2018-02-07T15:01:30.914Z,17.20
2018-02-07T15:04:03.039Z,17.83
2018-02-07T15:06:34.410Z,18.30
2018-02-07T15:09:06.777Z,20.20
2018-02-07T15:11:38.796Z,18.90
2018-02-07T15:14:10.158Z,18.50
2018-02-07T15:16:41.432Z,19.27
2018-02-07T15:19:14.286Z,18.13
2018-02-07T15:21:45.378Z,20.03
2018-02-07T15:24:16.557Z,18.30
2018-02-07T15:26:47.825Z,19.40
2018-02-07T15:29:18.994Z,19.00
2018-02-07T15:31:50.893Z,19.33
2018-02-07T15:34:22.845Z,18.47
2018-02-07T15:36:54.370Z,18.07
2018-02-07T15:39:26.299Z,17.37
2018-02-07T15:41:57.498Z,18.30
2018-02-07T15:44:28.724Z,17.37
2018-02-07T15:47:00.714Z,16.37
2018-02-07T15:49:32.877Z,17.50
2018-02-07T15:52:04.149Z,16.40
2018-02-07T15:54:35.234Z,16.03
2018-02-07T15:57:07.099Z,15.50
2018-02-07T15:59:39.037Z,15.20
2018-02-07T16:02:11.132Z,13.73
2018-02-07T16:04:42.851Z,15.53
2018-02-07T16:07:14.028Z,15.20
2018-02-07T16:09:44.978Z,15.80
2018-02-07T16:12:16.512Z,14.37
2018-02-07T16:14:48.565Z,13.83
2018-02-07T16:17:19.341Z,14.93
2018-02-07T16:19:50.175Z,13.63
2018-02-07T16:22:21.067Z,13.60
2018-02-07T16:24:51.924Z,13.97
2018-02-07T16:27:24.374Z,14.40
2018-02-07T16:29:56.054Z,14.63
2018-02-07T16:32:28.531Z,15.13
2018-02-07T16:35:01.843Z,14.30
2018-02-07T16:37:33.037Z,16.17
2018-02-07T16:40:04.086Z,14.97
2018-02-07T16:42:34.934Z,14.97
2018-02-07T16:45:06.998Z,15.93
2018-02-07T16:47:38.083Z,15.60
2018-02-07T16:50:08.922Z,15.70
2018-02-07T16:52:40.070Z,14.97
2018-02-07T16:55:11.302Z,15.67
2018-02-07T16:57:42.238Z,16.27
2018-02-07T17:00:13.260Z,15.30
2018-02-07T17:02:45.591Z,15.77
2018-02-07T17:05:16.559Z,16.03
2018-02-07T17:07:47.509Z,16.47
2018-02-07T17:10:19.293Z,15.23
2018-02-07T17:12:50.274Z,16.00
2018-02-07T17:15:21.398Z,16.10
2018-02-07T17:17:52.346Z,15.70
2018-02-07T17:20:23.318Z,15.33
2018-02-07T17:22:53.977Z,14.97
2018-02-07T17:25:26.166Z,15.00
2018-02-07T17:27:56.981Z,16.30
2018-02-07T17:30:27.993Z,16.80
2018-02-07T17:32:58.810Z,15.57
2018-02-07T17:35:29.897Z,16.40
2018-02-07T17:38:00.667Z,15.57
2018-02-07T17:40:31.529Z,16.80
2018-02-07T17:43:02.526Z,17.40
2018-02-07T17:45:33.546Z,18.93
2018-02-07T17:48:05.196Z,18.10
2018-02-07T17:50:37.151Z,17.23
2018-02-07T17:53:08.887Z,18.10
2018-02-07T17:55:39.814Z,17.30
2018-02-07T17:58:10.525Z,19.47
2018-02-07T18:00:41.502Z,18.03
2018-02-07T18:03:12.477Z,20.00
2018-02-07T18:05:43.378Z,19.10
2018-02-07T18:08:14.131Z,19.30
2018-02-07T18:10:45.456Z,18.90
2018-02-07T18:13:15.998Z,18.00
2018-02-07T18:15:47.678Z,19.00
2018-02-07T18:18:19.394Z,20.20
2018-02-07T18:20:50.610Z,20.23
2018-02-07T18:23:21.426Z,20.53
2018-02-07T18:25:53.037Z,21.00
2018-02-07T18:28:23.798Z,19.40
2018-02-07T18:30:55.534Z,20.20
2018-02-07T18:33:26.766Z,19.90
2018-02-07T18:35:57.527Z,21.07
2018-02-07T18:38:29.066Z,19.60
2018-02-07T18:41:00.012Z,19.37
2018-02-07T18:43:31.558Z,19.87
2018-02-07T18:46:02.482Z,20.20
2018-02-07T18:48:33.422Z,20.90
2018-02-07T18:51:04.283Z,20.60
2018-02-07T18:53:36.037Z,19.93
2018-02-07T18:56:07.926Z,20.97
2018-02-07T18:58:38.845Z,21.03
2018-02-07T19:01:10.466Z,21.30
2018-02-07T19:03:41.330Z,22.07
2018-02-07T19:06:12.762Z,22.60
2018-02-07T19:08:43.706Z,21.63
2018-02-07T19:11:15.454Z,20.63
2018-02-07T19:13:46.413Z,20.83
2018-02-07T19:16:18.218Z,21.50
2018-02-07T19:18:49.125Z,21.17
2018-02-07T19:21:20.734Z,22.20
2018-02-07T19:23:51.614Z,20.53
2018-02-07T19:26:23.208Z,21.37
2018-02-07T19:28:54.062Z,20.13
2018-02-07T19:31:24.982Z,21.73
2018-02-07T19:33:55.862Z,20.80
2018-02-07T19:36:27.574Z,22.97
2018-02-07T19:38:58.581Z,20.33
2018-02-07T19:41:30.122Z,20.43
2018-02-07T19:44:01.791Z,19.90
2018-02-07T19:46:34.130Z,22.20
2018-02-07T19:49:04.969Z,20.43
2018-02-07T19:51:35.710Z,20.57
2018-02-07T19:54:09.002Z,20.20
2018-02-07T19:56:40.498Z,20.10
2018-02-07T19:59:11.514Z,19.97
2018-02-07T20:01:43.034Z,20.40
2018-02-07T20:04:14.026Z,20.30
2018-02-07T20:06:44.605Z,19.97
2018-02-07T20:09:15.575Z,20.67
2018-02-07T20:11:47.327Z,19.93
2018-02-07T20:14:19.063Z,21.20
2018-02-07T20:16:50.336Z,21.30
2018-02-07T20:19:21.790Z,21.03
2018-02-07T20:21:53.347Z,20.60
2018-02-07T20:24:24.955Z,20.70
2018-02-07T20:26:55.746Z,21.17
2018-02-07T20:29:26.199Z,20.00
2018-02-07T20:31:57.013Z,21.67
2018-02-07T20:34:28.029Z,21.17
2018-02-07T20:36:59.527Z,21.17
2018-02-07T20:39:30.526Z,20.37
2018-02-07T20:42:02.154Z,21.20
2018-02-07T20:44:33.130Z,21.33
2018-02-07T20:47:04.522Z,20.53
2018-02-07T20:49:35.383Z,20.47
2018-02-07T20:52:06.094Z,22.43
2018-02-07T20:54:36.890Z,22.30
2018-02-07T20:57:07.726Z,21.60
2018-02-07T20:59:38.639Z,22.07
2018-02-07T21:02:10.302Z,22.17
2018-02-07T21:04:42.074Z,21.77
2018-02-07T21:07:13.817Z,23.27
2018-02-07T21:09:45.613Z,20.90
2018-02-07T21:12:17.996Z,21.50
2018-02-07T21:14:48.917Z,22.43
2018-02-07T21:17:19.490Z,21.10
2018-02-07T21:19:50.589Z,23.20
2018-02-07T21:22:22.419Z,22.10
2018-02-07T21:24:54.142Z,21.50
2018-02-07T21:27:24.997Z,24.53
2018-02-07T21:29:55.846Z,22.17
2018-02-07T21:32:27.569Z,21.20
2018-02-07T21:34:58.511Z,22.73
2018-02-07T21:37:29.194Z,22.10
2018-02-07T21:40:00.190Z,23.90
2018-02-07T21:42:32.022Z,23.07
2018-02-07T21:45:02.981Z,20.50
2018-02-07T21:47:33.810Z,21.10
2018-02-07T21:50:04.783Z,20.33
2018-02-07T21:52:35.593Z,20.77
2018-02-07T21:55:06.558Z,21.13
2018-02-07T21:57:38.213Z,21.17
2018-02-07T22:00:10.884Z,20.30
2018-02-07T22:02:42.358Z,20.57
2018-02-07T22:05:14.005Z,19.77
2018-02-07T22:07:45.746Z,19.83
2018-02-07T22:10:17.554Z,19.90
2018-02-07T22:12:48.561Z,19.50
2018-02-07T22:15:20.518Z,18.97
2018-02-07T22:17:52.202Z,21.37
2018-02-07T22:20:22.945Z,20.97
2018-02-07T22:22:53.842Z,21.80
2018-02-07T22:25:25.097Z,20.50
2018-02-07T22:27:57.174Z,20.63
2018-02-07T22:30:27.977Z,19.77
2018-02-07T22:32:59.734Z,21.33
2018-02-07T22:35:31.068Z,20.27
2018-02-07T22:38:02.362Z,20.77
2018-02-07T22:40:34.023Z,21.17
2018-02-07T22:43:05.469Z,20.93
2018-02-07T22:45:36.909Z,21.60
2018-02-07T22:48:08.506Z,21.40
2018-02-07T22:50:39.604Z,20.87
2018-02-07T22:53:11.782Z,21.40
2018-02-07T22:55:43.437Z,20.00
2018-02-07T22:58:15.063Z,20.50
2018-02-07T23:00:45.822Z,20.10
2018-02-07T23:03:17.559Z,19.70
2018-02-07T23:05:48.501Z,19.90
2018-02-07T23:08:19.434Z,19.23
2018-02-07T23:10:51.098Z,20.63
2018-02-07T23:13:22.029Z,20.70
2018-02-07T23:15:52.702Z,18.73
2018-02-07T23:18:24.470Z,19.37
2018-02-07T23:20:55.962Z,19.50
2018-02-07T23:23:27.852Z,18.00
2018-02-07T23:25:59.718Z,20.10
2018-02-07T23:28:32.626Z,21.40
2018-02-07T23:31:03.693Z,21.33
2018-02-07T23:33:34.626Z,20.10
2018-02-07T23:36:05.642Z,19.77
2018-02-07T23:38:36.429Z,20.07
2018-02-07T23:41:07.301Z,18.77
2018-02-07T23:43:38.843Z,18.63
2018-02-07T23:46:10.471Z,19.40
2018-02-07T23:48:41.815Z,19.70
2018-02-07T23:51:12.785Z,18.57
2018-02-07T23:53:44.359Z,21.20
2018-02-07T23:56:15.182Z,18.73
2018-02-07T23:58:46.853Z,19.33
